Time;durP1;ratioP1;P1;durP2;ratioP2;P2;SDS_P1;SDS_P2;PMS_P1;PMS_P2;Temp;Humidity;BMP_temperature;BMP_pressure;BME280_temperature;BME280_humidity;BME280_pressure;Samples;Min_cycle;Max_cycle;Signal;HPM_P1;HPM_P2
2024/02/21 00:04:06;;;;;;;32.83;14.02;;;;;;;7.06;100.00;101025.88;10322197;28;20050;-79
2024/02/21 00:09:11;;;;;;;44.30;15.35;;;;;;;6.92;100.00;101013.28;10313876;28;20141;-80
2024/02/21 00:14:13;;;;;;;36.45;15.23;;;;;;;7.18;100.00;101017.16;10309691;28;20046;-80
2024/02/21 00:19:17;;;;;;;35.90;12.38;;;;;;;6.93;100.00;101022.16;10297681;28;20502;-80
2024/02/21 00:24:21;;;;;;;34.90;14.77;;;;;;;6.75;100.00;101013.34;10283108;28;20057;-78
2024/02/21 00:29:24;;;;;;;37.40;16.38;;;;;;;6.95;100.00;101017.59;10280367;28;20097;-80
2024/02/21 00:34:27;;;;;;;44.05;16.20;;;;;;;7.09;100.00;101000.78;10279955;28;20802;-79
2024/02/21 00:39:32;;;;;;;31.30;15.70;;;;;;;7.31;100.00;100993.25;10285560;28;20145;-80
2024/02/21 00:44:36;;;;;;;31.67;14.23;;;;;;;6.91;100.00;100981.31;10299041;28;20521;-80
2024/02/21 00:49:38;;;;;;;40.35;17.40;;;;;;;7.15;100.00;100977.25;10280681;28;20061;-80
2024/02/21 00:54:43;;;;;;;36.45;19.52;;;;;;;7.06;100.00;100970.63;10289984;28;20699;-80
2024/02/21 00:59:55;;;;;;;45.03;15.50;;;;;;;7.42;100.00;100965.91;10280317;28;20046;-78
2024/02/21 01:04:58;;;;;;;41.97;18.00;;;;;;;7.36;100.00;100953.78;10279498;28;20062;-79
2024/02/21 01:10:03;;;;;;;31.48;13.00;;;;;;;7.27;100.00;100955.16;10302224;28;20061;-78
2024/02/21 01:15:07;;;;;;;41.13;16.05;;;;;;;7.28;100.00;100945.34;10298131;28;20080;-80
2024/02/21 01:20:10;;;;;;;37.47;15.35;;;;;;;7.18;100.00;100962.84;10283510;28;20059;-80
2024/02/21 01:25:15;;;;;;;38.05;16.65;;;;;;;7.48;98.72;100954.84;10276129;28;20077;-81
2024/02/21 01:30:19;;;;;;;39.42;16.08;;;;;;;7.37;99.90;100939.44;10303120;28;20156;-78
2024/02/21 01:35:22;;;;;;;35.40;15.40;;;;;;;7.21;100.00;100920.81;10283919;28;20065;-80
2024/02/21 01:40:26;;;;;;;35.28;17.65;;;;;;;7.43;99.13;100932.88;10283401;28;20050;-80
2024/02/21 01:45:29;;;;;;;37.25;17.08;;;;;;;7.56;97.68;100928.53;10308512;28;20136;-79
2024/02/21 01:50:33;;;;;;;39.90;17.10;;;;;;;7.49;97.58;100924.50;10287450;28;20050;-80
2024/02/21 01:55:38;;;;;;;36.63;15.80;;;;;;;7.28;100.00;100913.28;10297062;28;20543;-81
2024/02/21 02:00:45;;;;;;;42.97;18.05;;;;;;;7.30;99.17;100902.50;10287902;28;20054;-79
2024/02/21 02:05:50;;;;;;;44.25;18.77;;;;;;;7.48;97.95;100890.69;10307442;28;20509;-80
2024/02/21 02:10:55;;;;;;;37.40;16.63;;;;;;;7.37;98.36;100906.50;10285488;28;20049;-80
2024/02/21 02:15:58;;;;;;;38.90;15.30;;;;;;;7.45;96.23;100889.06;10278610;28;20157;-81
2024/02/21 02:21:01;;;;;;;43.38;18.52;;;;;;;7.45;97.15;100880.19;10271818;28;20131;-79
2024/02/21 02:26:07;;;;;;;38.25;16.90;;;;;;;7.36;97.53;100860.22;10285086;28;20058;-80
2024/02/21 02:31:10;;;;;;;36.78;16.23;;;;;;;7.21;99.38;100863.81;10270366;28;20053;-78
2024/02/21 02:36:13;;;;;;;37.88;18.35;;;;;;;7.51;96.87;100861.09;10291258;28;20133;-80
2024/02/21 02:41:17;;;;;;;41.72;16.55;;;;;;;7.45;98.08;100862.34;10284749;28;20050;-80
2024/02/21 02:46:20;;;;;;;37.60;16.90;;;;;;;7.39;97.55;100851.16;10276845;28;20537;-80
2024/02/21 02:51:23;;;;;;;38.60;18.60;;;;;;;7.52;96.76;100837.94;10289626;28;20066;-78
2024/02/21 02:56:28;;;;;;;35.17;17.23;;;;;;;7.42;98.04;100816.22;10299500;28;20055;-79
2024/02/21 03:01:35;;;;;;;34.42;16.35;;;;;;;7.11;100.00;100804.72;10291528;28;20046;-79
2024/02/21 03:06:38;;;;;;;36.55;16.73;;;;;;;7.42;97.90;100790.34;10299542;28;20086;-79
2024/02/21 03:11:44;;;;;;;37.85;16.80;;;;;;;7.56;96.95;100772.59;10298873;28;20419;-79
2024/02/21 03:16:47;;;;;;;42.67;17.42;;;;;;;7.38;98.21;100753.25;10294525;28;20101;-78
2024/02/21 03:21:50;;;;;;;36.78;16.45;;;;;;;7.64;95.42;100759.63;10284378;28;20194;-78
2024/02/21 03:26:54;;;;;;;38.40;17.92;;;;;;;7.49;96.04;100756.09;10270571;28;20078;-80
2024/02/21 03:31:57;;;;;;;29.33;12.27;;;;;;;7.22;97.66;100756.84;10276921;28;20050;-78
2024/02/21 03:37:00;;;;;;;25.25;10.98;;;;;;;7.01;99.17;100774.16;10304361;28;20078;-80
2024/02/21 03:42:05;;;;;;;26.10;12.68;;;;;;;7.41;96.87;100774.44;10274286;28;20046;-79
2024/02/21 03:47:10;;;;;;;30.10;14.38;;;;;;;7.16;98.35;100781.25;10311452;28;20548;-80
2024/02/21 03:52:13;;;;;;;28.17;13.55;;;;;;;7.25;96.75;100802.06;10280283;28;20576;-79
2024/02/21 03:57:18;;;;;;;32.97;15.27;;;;;;;7.01;99.84;100792.84;10271294;28;20054;-81
2024/02/21 04:02:21;;;;;;;33.13;13.82;;;;;;;7.16;98.51;100808.00;10280112;28;20043;-79
2024/02/21 04:07:24;;;;;;;27.15;13.00;;;;;;;7.06;99.10;100814.81;10271272;28;20070;-81
2024/02/21 04:12:29;;;;;;;27.38;15.27;;;;;;;7.25;97.73;100794.06;10275961;28;20108;-80
2024/02/21 04:17:32;;;;;;;37.30;14.73;;;;;;;7.16;98.32;100785.72;10289323;28;20059;-80
2024/02/21 04:22:35;;;;;;;21.55;13.10;;;;;;;7.20;97.64;100805.97;10281950;28;20047;-81
2024/02/21 04:27:40;;;;;;;27.02;10.98;;;;;;;7.39;96.29;100787.03;10279949;28;20058;-80
2024/02/21 04:32:43;;;;;;;32.38;15.32;;;;;;;7.16;98.19;100797.31;10289288;28;20061;-79
2024/02/21 04:37:46;;;;;;;20.92;8.18;;;;;;;7.07;98.02;100805.84;10288188;28;20115;-80
2024/02/21 04:42:50;;;;;;;26.30;13.57;;;;;;;7.10;97.69;100797.63;10291446;28;20403;-80
2024/02/21 04:47:53;;;;;;;28.42;12.02;;;;;;;7.30;96.40;100801.81;10290910;28;20065;-79
2024/02/21 04:52:56;;;;;;;24.77;12.38;;;;;;;7.13;98.18;100794.81;10284668;28;20145;-80
2024/02/21 04:58:02;;;;;;;32.08;16.13;;;;;;;7.00;100.00;100793.81;10293923;28;20224;-79
2024/02/21 05:03:06;;;;;;;38.88;15.98;;;;;;;6.97;100.00;100802.03;10285439;28;20052;-81
2024/02/21 05:08:08;;;;;;;32.50;15.57;;;;;;;6.76;100.00;100794.28;10281943;28;20050;-79
2024/02/21 05:13:13;;;;;;;35.67;16.10;;;;;;;6.95;100.00;100774.53;10289161;28;20046;-79
2024/02/21 05:18:16;;;;;;;31.42;14.68;;;;;;;6.96;100.00;100774.44;10278752;28;20061;-80
2024/02/21 05:23:19;;;;;;;32.05;16.38;;;;;;;6.81;100.00;100770.84;10292432;28;20711;-80
2024/02/21 05:28:23;;;;;;;38.80;16.40;;;;;;;6.88;100.00;100762.50;10284354;28;20050;-79
2024/02/21 05:33:27;;;;;;;30.35;14.18;;;;;;;6.80;100.00;100746.88;10293607;28;20072;-81
2024/02/21 05:38:30;;;;;;;24.52;13.00;;;;;;;6.73;100.00;100754.41;10294668;28;20051;-79
2024/02/21 05:43:34;;;;;;;27.85;12.32;;;;;;;6.67;100.00;100768.13;10295282;28;20424;-81
2024/02/21 05:48:37;;;;;;;36.30;15.32;;;;;;;6.79;100.00;100747.84;10288745;28;20046;-81
2024/02/21 05:53:42;;;;;;;36.63;16.30;;;;;;;6.92;100.00;100737.34;10285554;28;20070;-79
2024/02/21 05:58:46;;;;;;;28.67;13.63;;;;;;;6.63;100.00;100718.53;10284118;28;20050;-79
2024/02/21 06:03:49;;;;;;;36.30;15.88;;;;;;;6.77;100.00;100731.91;10293394;28;20068;-79
2024/02/21 06:08:52;;;;;;;30.85;13.80;;;;;;;6.82;100.00;100732.50;10285776;28;20055;-78
2024/02/21 06:13:57;;;;;;;27.27;14.45;;;;;;;6.87;100.00;100726.91;10290071;28;20047;-79
2024/02/21 06:19:00;;;;;;;42.03;17.05;;;;;;;7.02;100.00;100734.03;10312718;28;20050;-79
2024/02/21 06:24:03;;;;;;;44.35;17.02;;;;;;;7.35;100.00;100729.34;10291817;28;20050;-80
2024/02/21 06:29:07;;;;;;;35.00;14.00;;;;;;;6.85;100.00;100723.44;10287073;28;20531;-80
2024/02/21 06:34:10;;;;;;;32.45;14.52;;;;;;;7.00;100.00;100737.72;10292272;28;20058;-80
2024/02/21 06:39:13;;;;;;;29.77;13.68;;;;;;;7.12;100.00;100734.31;10310315;28;20043;-79
2024/02/21 06:44:18;;;;;;;29.98;13.38;;;;;;;6.97;100.00;100719.22;10297670;28;20050;-80
2024/02/21 06:49:21;;;;;;;43.45;16.98;;;;;;;7.48;98.47;100693.72;10282796;28;20049;-81
2024/02/21 06:54:24;;;;;;;25.48;9.70;;;;;;;7.00;99.68;100692.31;10288474;28;20090;-79
2024/02/21 06:59:29;;;;;;;34.33;13.82;;;;;;;7.42;96.42;100686.09;10280024;28;21192;-81
2024/02/21 07:04:32;;;;;;;31.20;14.82;;;;;;;7.54;95.27;100679.13;10282886;28;20047;-81
2024/02/21 07:09:36;;;;;;;28.08;11.95;;;;;;;7.60;93.98;100696.63;10284181;28;20140;-80
2024/02/21 07:14:40;;;;;;;24.48;13.05;;;;;;;7.52;93.93;100677.53;10289819;28;20057;-80
2024/02/21 07:19:43;;;;;;;25.85;12.00;;;;;;;7.41;92.96;100678.22;10286631;28;21170;-81
2024/02/21 07:24:46;;;;;;;31.00;12.13;;;;;;;7.73;90.76;100673.44;10286425;28;20602;-80
2024/02/21 07:29:50;;;;;;;27.15;10.82;;;;;;;7.52;91.43;100678.38;10281350;28;20165;-81
2024/02/21 07:34:53;;;;;;;29.30;9.18;;;;;;;7.48;89.82;100701.75;10272830;28;20050;-80
2024/02/21 07:39:56;;;;;;;25.85;9.50;;;;;;;7.47;89.91;100701.88;10282433;28;20052;-79
2024/02/21 07:45:01;;;;;;;20.30;9.32;;;;;;;7.62;89.03;100698.19;10303883;28;20038;-77
2024/02/21 07:50:05;;;;;;;23.60;9.50;;;;;;;7.76;87.09;100707.16;10291640;28;20058;-79
2024/02/21 07:55:10;;;;;;;22.48;8.77;;;;;;;8.10;85.25;100690.66;10287269;28;20076;-80
2024/02/21 08:00:19;;;;;;;12.48;6.72;;;;;;;7.83;85.98;100690.63;10282892;28;20045;-79
2024/02/21 08:05:23;;;;;;;18.70;9.63;;;;;;;7.89;85.62;100687.53;10273966;28;20421;-80
2024/02/21 08:10:26;;;;;;;20.95;8.25;;;;;;;8.20;83.63;100688.25;10276345;28;20057;-79
2024/02/21 08:15:31;;;;;;;15.60;7.65;;;;;;;8.12;83.32;100666.47;10296827;28;20450;-79
2024/02/21 08:20:34;;;;;;;18.85;8.32;;;;;;;8.16;84.02;100662.63;10305465;28;20050;-80
2024/02/21 08:25:37;;;;;;;19.92;7.07;;;;;;;7.90;83.99;100664.34;10305925;28;20052;-79
2024/02/21 08:30:47;;;;;;;18.25;7.22;;;;;;;7.91;84.00;100650.88;10298478;28;20136;-80
2024/02/21 08:35:51;;;;;;;19.60;8.07;;;;;;;8.43;81.41;100629.63;10297532;28;20042;-79
2024/02/21 08:40:54;;;;;;;19.70;7.22;;;;;;;8.58;79.98;100631.25;10300873;28;20200;-80
2024/02/21 08:46:00;;;;;;;13.48;5.93;;;;;;;8.45;79.82;100620.53;10318461;28;20050;-80
2024/02/21 08:51:03;;;;;;;17.73;6.78;;;;;;;8.20;80.95;100626.69;10326138;28;20081;-80
2024/02/21 08:56:08;;;;;;;13.52;6.28;;;;;;;8.78;78.16;100611.16;10301485;28;20058;-80
2024/02/21 09:01:12;;;;;;;26.10;5.68;;;;;;;8.39;78.27;100610.22;10298248;28;20056;-79
2024/02/21 09:06:15;;;;;;;13.05;7.20;;;;;;;8.69;77.69;100612.63;10296254;28;20050;-82
2024/02/21 09:11:19;;;;;;;15.23;6.63;;;;;;;9.07;76.84;100593.00;10304697;28;20058;-80
2024/02/21 09:16:23;;;;;;;15.05;5.97;;;;;;;8.78;77.75;100603.13;10296762;28;20054;-80
2024/02/21 09:21:27;;;;;;;12.77;4.85;;;;;;;8.55;77.90;100602.88;10289560;28;20054;-80
2024/02/21 09:26:30;;;;;;;14.63;5.05;;;;;;;8.40;78.76;100591.38;10297262;28;20054;-80
2024/02/21 09:31:35;;;;;;;7.00;3.55;;;;;;;8.22;79.43;100611.34;10289899;28;20042;-81
2024/02/21 09:36:40;;;;;;;12.93;6.43;;;;;;;9.02;77.06;100582.63;10296915;28;20334;-81
2024/02/21 09:41:48;;;;;;;12.73;5.10;;;;;;;8.84;76.01;100590.13;10294783;28;20067;-79
2024/02/21 09:46:57;;;;;;;9.20;4.18;;;;;;;8.77;76.17;100596.03;10304498;28;20043;-79
2024/02/21 09:52:03;;;;;;;5.63;2.88;;;;;;;8.78;74.59;100577.19;10304874;28;20046;-81
2024/02/21 09:57:07;;;;;;;8.95;3.78;;;;;;;9.12;73.31;100569.41;10304069;28;20046;-81
2024/02/21 10:02:12;;;;;;;15.18;4.57;;;;;;;8.73;74.77;100547.19;10296852;28;20054;-80
2024/02/21 10:07:15;;;;;;;11.35;4.68;;;;;;;8.91;72.37;100542.31;10290648;28;20138;-81
2024/02/21 10:12:19;;;;;;;9.30;3.83;;;;;;;8.97;72.51;100549.94;10299348;28;20694;-79
2024/02/21 10:17:23;;;;;;;8.40;4.07;;;;;;;9.40;70.28;100545.94;10275585;28;20052;-80
2024/02/21 10:22:28;;;;;;;11.98;4.63;;;;;;;9.20;70.55;100539.38;10285752;28;20054;-80
2024/02/21 10:27:31;;;;;;;7.22;3.90;;;;;;;8.81;70.81;100536.78;10289144;28;20042;-79
2024/02/21 10:32:36;;;;;;;7.22;3.20;;;;;;;8.88;70.68;100525.63;10300492;28;20061;-81
2024/02/21 10:37:39;;;;;;;10.43;4.45;;;;;;;9.12;70.24;100521.16;10292244;28;21337;-80
2024/02/21 10:42:46;;;;;;;7.03;2.83;;;;;;;8.63;71.11;100543.44;10290943;28;20058;-80
2024/02/21 10:47:56;;;;;;;10.07;3.63;;;;;;;8.70;71.25;100519.78;10289234;28;20046;-77
2024/02/21 10:53:09;;;;;;;12.45;4.30;;;;;;;9.00;70.89;100508.69;10307319;28;20057;-81
2024/02/21 10:58:13;;;;;;;12.18;5.63;;;;;;;9.12;70.67;100497.06;10315744;28;20663;-78
2024/02/21 11:03:18;;;;;;;11.82;5.32;;;;;;;8.86;71.77;100496.28;10289608;28;20042;-81
2024/02/21 11:08:25;;;;;;;9.02;4.45;;;;;;;9.14;70.90;100475.50;10296063;28;20058;-79
2024/02/21 11:13:32;;;;;;;13.95;5.38;;;;;;;9.22;71.72;100465.09;10297993;28;20061;-79
2024/02/21 11:18:37;;;;;;;11.95;5.18;;;;;;;8.58;74.14;100468.81;10292777;28;20438;-79
2024/02/21 11:23:41;;;;;;;16.58;6.82;;;;;;;8.52;74.49;100463.84;10314166;28;20077;-80
2024/02/21 11:28:44;;;;;;;14.25;6.80;;;;;;;9.15;73.05;100440.53;10301144;28;20089;-80
2024/02/21 11:33:49;;;;;;;14.70;8.35;;;;;;;8.95;74.37;100433.13;10301130;28;20837;-79
2024/02/21 11:38:52;;;;;;;14.32;6.88;;;;;;;9.40;71.79;100415.44;10290856;28;20110;-81
2024/02/21 11:43:55;;;;;;;14.57;6.00;;;;;;;9.55;71.55;100408.06;10300424;28;20053;-81
2024/02/21 11:49:03;;;;;;;13.15;6.93;;;;;;;9.55;70.72;100413.44;10314541;28;20310;-80
2024/02/21 11:54:07;;;;;;;14.40;7.40;;;;;;;9.15;72.75;100394.13;10314752;28;20050;-79
2024/02/21 11:59:10;;;;;;;14.40;7.32;;;;;;;9.16;72.88;100371.72;10304750;28;20089;-79
2024/02/21 12:04:16;;;;;;;18.52;8.13;;;;;;;9.41;73.00;100349.28;10299811;28;20509;-80
2024/02/21 12:09:20;;;;;;;13.35;6.53;;;;;;;9.17;74.03;100373.44;10284461;28;20071;-79
2024/02/21 12:14:23;;;;;;;17.15;6.45;;;;;;;8.92;75.55;100353.00;10283470;28;20047;-77
2024/02/21 12:19:29;;;;;;;13.27;5.55;;;;;;;9.17;73.52;100342.13;10282578;28;20085;-81
2024/02/21 12:24:33;;;;;;;16.27;6.10;;;;;;;9.24;73.14;100346.06;10302567;28;20183;-80
2024/02/21 12:29:36;;;;;;;11.98;6.72;;;;;;;9.54;73.14;100331.25;10297126;28;20046;-82
2024/02/21 12:34:40;;;;;;;12.90;6.03;;;;;;;9.28;73.60;100327.91;10299698;28;20057;-80
2024/02/21 12:39:56;;;;;;;12.77;4.88;;;;;;;9.32;73.53;100309.75;10290761;28;20047;-80
2024/02/21 12:45:00;;;;;;;5.38;3.10;;;;;;;9.04;74.54;100307.34;10303108;28;20050;-81
2024/02/21 12:50:06;;;;;;;11.63;4.40;;;;;;;9.15;74.63;100287.78;10298892;28;20058;-81
2024/02/21 12:55:12;;;;;;;11.27;3.35;;;;;;;8.66;76.99;100270.06;10318425;28;20061;-81
2024/02/21 13:00:16;;;;;;;11.60;4.85;;;;;;;9.19;75.49;100238.34;10323192;28;20065;-80
2024/02/21 13:05:20;;;;;;;9.82;5.15;;;;;;;9.18;74.89;100231.25;10324403;28;20110;-78
2024/02/21 13:10:23;;;;;;;9.52;4.70;;;;;;;9.05;76.40;100246.56;10317558;28;20062;-80
2024/02/21 13:15:27;;;;;;;22.70;7.93;;;;;;;9.27;76.65;100238.59;10317995;28;21243;-80
2024/02/21 13:20:32;;;;;;;21.70;6.25;;;;;;;9.15;76.93;100207.38;10305061;28;20073;-79
2024/02/21 13:25:35;;;;;;;20.23;6.60;;;;;;;9.35;76.91;100183.53;10295640;28;20050;-80
2024/02/21 13:30:38;;;;;;;12.50;6.18;;;;;;;9.54;75.92;100134.66;10301560;28;20286;-80
2024/02/21 13:35:43;;;;;;;11.07;4.63;;;;;;;9.55;75.39;100118.44;10290104;28;20513;-80
2024/02/21 13:40:46;;;;;;;11.07;4.30;;;;;;;9.63;74.46;100104.44;10267465;28;20106;-80
2024/02/21 13:46:01;;;;;;;11.05;3.55;;;;;;;9.40;75.36;100133.09;10290754;28;20047;-80
2024/02/21 13:51:06;;;;;;;8.20;4.03;;;;;;;9.35;74.80;100092.38;10308207;28;20389;-79
2024/02/21 13:56:09;;;;;;;13.88;5.63;;;;;;;9.48;74.24;100077.84;10319428;28;20072;-79
2024/02/21 14:01:12;;;;;;;9.48;3.97;;;;;;;9.80;72.97;100055.59;10323580;28;20180;-80
2024/02/21 14:06:17;;;;;;;10.18;4.28;;;;;;;9.47;72.33;100025.22;10304074;28;20047;-77
2024/02/21 14:11:20;;;;;;;7.90;3.45;;;;;;;9.69;71.08;100000.16;10300931;28;20087;-80
2024/02/21 14:16:23;;;;;;;11.90;4.47;;;;;;;9.37;72.19;100053.75;10285869;28;20051;-80
2024/02/21 14:21:28;;;;;;;12.70;4.00;;;;;;;9.51;71.97;100047.25;10283053;28;20055;-80
2024/02/21 14:26:32;;;;;;;12.35;3.80;;;;;;;9.27;71.27;100028.69;10284374;28;20081;-79
2024/02/21 14:31:35;;;;;;;12.45;3.80;;;;;;;9.80;70.57;99991.22;10283821;28;20433;-80
2024/02/21 14:36:40;;;;;;;9.98;3.55;;;;;;;10.03;68.79;99985.78;10279968;28;20054;-80
2024/02/21 14:41:43;;;;;;;11.90;3.38;;;;;;;9.86;67.45;99974.63;10286877;28;20058;-79
2024/02/21 14:46:46;;;;;;;6.68;2.58;;;;;;;10.16;65.54;99954.22;10283222;28;20416;-78
2024/02/21 14:51:51;;;;;;;15.07;3.45;;;;;;;9.75;66.34;99947.84;10296343;28;20078;-81
2024/02/21 14:56:54;;;;;;;7.65;2.60;;;;;;;9.95;66.21;99924.72;10289482;28;20069;-81
2024/02/21 15:01:57;;;;;;;9.55;3.10;;;;;;;9.89;66.23;99912.66;10271625;28;20043;-80
2024/02/21 15:07:02;;;;;;;10.50;3.60;;;;;;;9.94;67.09;99906.91;10286550;28;20101;-81
2024/02/21 15:12:06;;;;;;;7.22;3.08;;;;;;;9.93;67.18;99908.75;10283585;28;20050;-80
2024/02/21 15:17:10;;;;;;;9.40;2.83;;;;;;;10.07;66.84;99880.72;10278358;28;20047;-82
2024/02/21 15:22:15;;;;;;;12.70;2.90;;;;;;;9.96;67.64;99867.41;10296415;28;20057;-81
2024/02/21 15:27:18;;;;;;;11.13;3.10;;;;;;;10.01;67.74;99848.19;10303430;28;20059;-81
2024/02/21 15:32:21;;;;;;;6.32;2.92;;;;;;;10.00;67.75;99835.78;10299755;28;20092;-81
2024/02/21 15:37:26;;;;;;;13.10;4.90;;;;;;;9.94;68.30;99802.28;10294348;28;20113;-80
2024/02/21 15:42:31;;;;;;;7.40;3.38;;;;;;;9.99;68.01;99799.22;10292558;28;20089;-81
2024/02/21 15:47:34;;;;;;;5.32;2.50;;;;;;;9.84;68.49;99802.19;10291072;28;20425;-80
2024/02/21 15:52:39;;;;;;;12.32;5.00;;;;;;;9.75;69.09;99781.56;10285376;28;20074;-79
2024/02/21 15:57:42;;;;;;;10.88;2.92;;;;;;;9.84;69.82;99775.38;10314834;28;20085;-81
2024/02/21 16:02:45;;;;;;;6.15;2.92;;;;;;;9.53;69.08;99768.31;10301513;28;20043;-78
2024/02/21 16:07:49;;;;;;;9.75;3.10;;;;;;;9.45;68.67;99766.28;10297745;28;20120;-81
2024/02/21 16:12:52;;;;;;;11.07;3.80;;;;;;;9.51;68.01;99760.38;10294457;28;20093;-78
2024/02/21 16:17:56;;;;;;;14.70;3.97;;;;;;;9.46;68.60;99760.81;10290595;28;21023;-78
2024/02/21 16:23:03;;;;;;;8.80;3.65;;;;;;;9.39;68.71;99740.84;10299607;28;20050;-79
2024/02/21 16:28:07;;;;;;;7.03;3.13;;;;;;;9.27;68.79;99740.09;10298286;28;20101;-79
2024/02/21 16:33:10;;;;;;;11.85;4.13;;;;;;;9.19;68.95;99734.53;10290235;28;20050;-80
2024/02/21 16:38:14;;;;;;;6.22;3.10;;;;;;;9.22;69.37;99741.47;10282843;28;20051;-79
2024/02/21 16:43:18;;;;;;;9.68;4.38;;;;;;;9.17;69.76;99723.09;10286171;28;20632;-80
2024/02/21 16:48:21;;;;;;;9.48;3.45;;;;;;;9.19;69.45;99709.59;10283919;28;20050;-79
2024/02/21 16:53:26;;;;;;;7.47;3.90;;;;;;;9.15;69.92;99713.50;10283716;28;20050;-80
2024/02/21 16:58:30;;;;;;;8.88;3.72;;;;;;;9.15;69.47;99708.97;10288156;28;20050;-78
2024/02/21 17:03:34;;;;;;;10.30;3.70;;;;;;;9.16;69.25;99704.47;10288840;28;20110;-78
2024/02/21 17:08:40;;;;;;;12.18;3.45;;;;;;;9.19;69.05;99706.91;10286607;28;20667;-79
2024/02/21 17:13:43;;;;;;;13.27;4.00;;;;;;;9.13;68.55;99702.03;10315080;28;20120;-81
2024/02/21 17:18:47;;;;;;;9.43;3.10;;;;;;;9.23;68.27;99694.94;10293384;28;20178;-80
2024/02/21 17:23:51;;;;;;;9.45;2.92;;;;;;;9.28;67.16;99690.88;10288864;28;20125;-80
2024/02/21 17:28:55;;;;;;;10.57;3.00;;;;;;;9.29;66.59;99672.94;10303229;28;20061;-80
2024/02/21 17:33:58;;;;;;;7.68;3.30;;;;;;;9.23;66.06;99674.31;10319418;28;20058;-79
2024/02/21 17:39:04;;;;;;;7.85;2.38;;;;;;;9.26;65.43;99659.81;10307188;28;20051;-78
2024/02/21 17:44:08;;;;;;;10.68;3.10;;;;;;;9.28;65.37;99656.03;10293141;28;20898;-78
2024/02/21 17:49:11;;;;;;;10.82;3.67;;;;;;;9.37;65.22;99645.47;10292964;28;20110;-80
2024/02/21 17:54:16;;;;;;;6.63;3.22;;;;;;;9.28;65.24;99637.25;10290934;28;20077;-80
2024/02/21 17:59:20;;;;;;;12.82;4.68;;;;;;;9.25;64.32;99631.34;10306906;28;20050;-80
2024/02/21 18:04:25;;;;;;;9.32;3.45;;;;;;;9.32;63.48;99613.72;10308423;28;20805;-81
2024/02/21 18:09:30;;;;;;;6.50;2.75;;;;;;;9.39;63.09;99606.84;10298650;28;20046;-78
2024/02/21 18:14:34;;;;;;;7.15;3.10;;;;;;;9.45;63.32;99598.25;10297299;28;20134;-81
2024/02/21 18:19:37;;;;;;;11.85;3.35;;;;;;;9.32;64.20;99580.72;10290687;28;20540;-79
2024/02/21 18:24:43;;;;;;;9.70;3.33;;;;;;;9.26;64.65;99568.69;10293780;28;20055;-79
2024/02/21 18:29:46;;;;;;;7.63;3.00;;;;;;;9.23;66.13;99560.94;10290494;28;20050;-81
2024/02/21 18:34:50;;;;;;;11.07;3.40;;;;;;;8.97;65.66;99549.84;10291472;28;20042;-80
2024/02/21 18:39:55;;;;;;;5.10;2.08;;;;;;;8.86;65.55;99534.72;10298440;28;20060;-80
2024/02/21 18:44:59;;;;;;;11.18;3.03;;;;;;;8.84;67.17;99507.22;10296503;28;20058;-80
2024/02/21 18:50:03;;;;;;;7.30;2.42;;;;;;;8.94;69.60;99500.06;10303118;28;20065;-81
2024/02/21 18:55:10;;;;;;;8.68;2.67;;;;;;;8.76;69.12;99480.25;10303717;28;20047;-80
2024/02/21 19:00:18;;;;;;;6.80;2.65;;;;;;;8.57;69.38;99468.47;10284572;28;20055;-80
2024/02/21 19:05:23;;;;;;;11.48;2.20;;;;;;;8.43;69.67;99452.75;10293120;28;20062;-79
2024/02/21 19:10:28;;;;;;;4.85;2.10;;;;;;;8.29;71.68;99451.28;10340305;28;20058;-80
2024/02/21 19:15:32;;;;;;;5.88;2.10;;;;;;;8.09;73.49;99434.25;10306418;28;20046;-80
2024/02/21 19:20:35;;;;;;;5.05;2.00;;;;;;;7.99;73.42;99432.50;10302934;28;20588;-78
2024/02/21 19:25:42;;;;;;;6.45;1.80;;;;;;;7.81;74.70;99426.88;10295954;28;20059;-78
2024/02/21 19:30:47;;;;;;;6.40;2.50;;;;;;;7.58;75.45;99405.63;10315082;28;20077;-79
2024/02/21 19:35:50;;;;;;;4.20;1.95;;;;;;;7.65;77.94;99393.44;10308885;28;20058;-80
2024/02/21 19:40:54;;;;;;;6.20;1.85;;;;;;;7.36;81.02;99379.00;10301866;28;20042;-80
2024/02/21 19:45:58;;;;;;;4.03;2.15;;;;;;;7.24;83.60;99375.50;10300131;28;20437;-79
2024/02/21 19:51:03;;;;;;;6.32;2.28;;;;;;;7.26;86.69;99371.75;10290544;28;20072;-79
2024/02/21 19:56:08;;;;;;;5.22;2.28;;;;;;;7.04;89.33;99377.16;10292316;28;20128;-80
2024/02/21 20:01:11;;;;;;;5.10;3.03;;;;;;;7.21;93.16;99355.28;10301326;28;20050;-78
2024/02/21 20:06:15;;;;;;;8.05;2.85;;;;;;;7.03;94.98;99346.13;10289048;28;20054;-79
2024/02/21 20:11:22;;;;;;;8.82;4.20;;;;;;;6.78;97.78;99331.25;10309495;28;20050;-79
2024/02/21 20:16:25;;;;;;;11.25;4.03;;;;;;;6.73;99.59;99328.09;10317864;28;20117;-81
2024/02/21 20:21:28;;;;;;;8.90;3.92;;;;;;;6.80;100.00;99310.59;10303174;28;20067;-79
2024/02/21 20:26:32;;;;;;;13.48;3.97;;;;;;;6.72;100.00;99305.03;10311037;28;20050;-78
2024/02/21 20:31:36;;;;;;;9.45;4.55;;;;;;;6.65;100.00;99290.53;10287360;28;20577;-79
2024/02/21 20:36:39;;;;;;;10.55;4.65;;;;;;;6.70;100.00;99278.50;10289492;28;20097;-79
2024/02/21 20:41:43;;;;;;;12.75;4.70;;;;;;;6.48;100.00;99266.06;10294663;28;21224;-78
2024/02/21 20:46:46;;;;;;;11.00;3.88;;;;;;;6.52;100.00;99263.97;10298517;28;20084;-79
2024/02/21 20:51:49;;;;;;;6.40;3.40;;;;;;;6.54;100.00;99267.38;10306372;28;20057;-78
2024/02/21 20:56:54;;;;;;;11.05;3.55;;;;;;;6.48;100.00;99258.06;10310690;28;20056;-80
2024/02/21 21:01:59;;;;;;;6.35;3.60;;;;;;;6.62;100.00;99238.25;10299945;28;20054;-77
2024/02/21 21:07:06;;;;;;;12.13;4.53;;;;;;;6.69;100.00;99231.44;10292548;28;20046;-79
2024/02/21 21:12:11;;;;;;;10.10;3.88;;;;;;;6.46;100.00;99224.47;10303207;28;20662;-78
2024/02/21 21:17:15;;;;;;;8.82;4.05;;;;;;;6.57;100.00;99211.09;10313625;28;20093;-78
2024/02/21 21:22:18;;;;;;;7.07;3.35;;;;;;;6.75;100.00;99206.06;10300455;28;20054;-80
2024/02/21 21:27:26;;;;;;;8.43;2.97;;;;;;;6.61;100.00;99199.22;10321337;28;20256;-80
2024/02/21 21:32:29;;;;;;;6.07;3.10;;;;;;;6.99;100.00;99203.16;10297739;28;20062;-78
2024/02/21 21:37:33;;;;;;;6.03;3.20;;;;;;;6.85;100.00;99191.78;10282558;28;20553;-78
2024/02/21 21:42:37;;;;;;;6.00;2.63;;;;;;;6.79;100.00;99178.13;10277262;28;20130;-81
2024/02/21 21:47:42;;;;;;;4.93;2.15;;;;;;;6.73;100.00;99167.97;10323502;28;20058;-79
2024/02/21 21:52:46;;;;;;;10.00;2.88;;;;;;;6.77;100.00;99156.03;10308785;28;20128;-80
2024/02/21 21:57:56;;;;;;;8.88;2.72;;;;;;;6.93;100.00;99155.63;10308127;28;20056;-79
2024/02/21 22:02:59;;;;;;;4.35;2.25;;;;;;;6.76;100.00;99147.19;10282359;28;20081;-80
2024/02/21 22:08:03;;;;;;;5.97;2.33;;;;;;;6.84;100.00;99122.53;10294772;28;20046;-80
2024/02/21 22:13:07;;;;;;;4.22;2.60;;;;;;;6.75;100.00;99128.66;10288137;28;20047;-81
2024/02/21 22:18:10;;;;;;;4.03;2.10;;;;;;;6.83;100.00;99113.69;10268899;28;21653;-80
2024/02/21 22:23:14;;;;;;;5.35;2.40;;;;;;;6.68;100.00;99095.47;10299876;28;20054;-80
2024/02/21 22:28:19;;;;;;;6.90;2.72;;;;;;;7.05;100.00;99091.34;10280576;28;20047;-80
2024/02/21 22:33:22;;;;;;;8.18;3.20;;;;;;;6.77;100.00;99082.16;10288867;28;20051;-80
2024/02/21 22:38:25;;;;;;;6.45;3.10;;;;;;;6.74;100.00;99076.25;10282008;28;20086;-80
2024/02/21 22:43:29;;;;;;;6.70;2.80;;;;;;;6.74;100.00;99061.06;10280351;28;20058;-81
2024/02/21 22:48:32;;;;;;;10.35;3.08;;;;;;;6.75;100.00;99054.78;10282871;28;20062;-81
2024/02/21 22:53:35;;;;;;;7.10;3.28;;;;;;;6.79;100.00;99048.19;10296666;28;20057;-80
2024/02/21 22:58:40;;;;;;;6.28;3.20;;;;;;;6.72;100.00;99038.16;10303663;28;20050;-80
2024/02/21 23:03:43;;;;;;;6.18;2.60;;;;;;;6.89;100.00;99023.41;10287732;28;20120;-81
2024/02/21 23:08:46;;;;;;;7.82;2.60;;;;;;;6.80;100.00;99004.53;10274221;28;20065;-80
2024/02/21 23:13:50;;;;;;;5.68;3.05;;;;;;;6.72;100.00;99004.34;10281587;28;20054;-80
2024/02/21 23:18:53;;;;;;;10.88;3.70;;;;;;;7.08;100.00;98988.78;10306668;28;20057;-80